sensor_id;sensor_type;location;lat;lon;timestamp;P1;durP1;ratioP1;P2;durP2;ratioP2
13560;SDS011;6852;51.686;5.314;2022-08-01T00:00:36;18.17;;;11.53;;
13560;SDS011;6852;51.686;5.314;2022-08-01T00:03:03;20.67;;;11.87;;
13560;SDS011;6852;51.686;5.314;2022-08-01T00:05:30;14.17;;;10.73;;
13560;SDS011;6852;51.686;5.314;2022-08-01T00:07:58;16.17;;;10.70;;
13560;SDS011;6852;51.686;5.314;2022-08-01T00:10:26;13.80;;;9.10;;
13560;SDS011;6852;51.686;5.314;2022-08-01T00:12:53;12.13;;;8.07;;
13560;SDS011;6852;51.686;5.314;2022-08-01T00:15:24;12.27;;;7.73;;
13560;SDS011;6852;51.686;5.314;2022-08-01T00:17:54;11.20;;;7.43;;
13560;SDS011;6852;51.686;5.314;2022-08-01T00:20:20;10.53;;;6.70;;
13560;SDS011;6852;51.686;5.314;2022-08-01T00:22:50;10.50;;;7.00;;
13560;SDS011;6852;51.686;5.314;2022-08-01T00:25:17;10.13;;;7.10;;
13560;SDS011;6852;51.686;5.314;2022-08-01T00:27:44;12.83;;;7.43;;
13560;SDS011;6852;51.686;5.314;2022-08-01T00:30:15;9.93;;;6.53;;
13560;SDS011;6852;51.686;5.314;2022-08-01T00:32:42;9.07;;;6.43;;
13560;SDS011;6852;51.686;5.314;2022-08-01T00:35:09;9.43;;;7.10;;
13560;SDS011;6852;51.686;5.314;2022-08-01T00:37:37;9.90;;;6.40;;
13560;SDS011;6852;51.686;5.314;2022-08-01T00:40:05;8.57;;;6.70;;
13560;SDS011;6852;51.686;5.314;2022-08-01T00:42:35;8.57;;;6.10;;
13560;SDS011;6852;51.686;5.314;2022-08-01T00:45:08;9.17;;;6.83;;
13560;SDS011;6852;51.686;5.314;2022-08-01T00:47:36;12.60;;;6.73;;
13560;SDS011;6852;51.686;5.314;2022-08-01T00:50:06;9.97;;;6.70;;
13560;SDS011;6852;51.686;5.314;2022-08-01T00:52:39;9.87;;;6.80;;
13560;SDS011;6852;51.686;5.314;2022-08-01T00:55:07;11.03;;;7.03;;
13560;SDS011;6852;51.686;5.314;2022-08-01T00:57:40;9.47;;;6.83;;
13560;SDS011;6852;51.686;5.314;2022-08-01T01:00:29;9.40;;;6.53;;
13560;SDS011;6852;51.686;5.314;2022-08-01T01:03:16;10.97;;;6.27;;
13560;SDS011;6852;51.686;5.314;2022-08-01T01:05:59;12.40;;;6.13;;
13560;SDS011;6852;51.686;5.314;2022-08-01T01:08:58;8.13;;;6.00;;
13560;SDS011;6852;51.686;5.314;2022-08-01T01:11:31;6.70;;;5.30;;
13560;SDS011;6852;51.686;5.314;2022-08-01T01:14:08;8.63;;;5.90;;
13560;SDS011;6852;51.686;5.314;2022-08-01T01:16:40;8.53;;;5.97;;
13560;SDS011;6852;51.686;5.314;2022-08-01T01:19:10;8.80;;;5.70;;
13560;SDS011;6852;51.686;5.314;2022-08-01T01:27:20;8.87;;;5.67;;
13560;SDS011;6852;51.686;5.314;2022-08-01T01:30:09;6.90;;;5.03;;
13560;SDS011;6852;51.686;5.314;2022-08-01T01:32:41;7.57;;;5.13;;
13560;SDS011;6852;51.686;5.314;2022-08-01T01:35:20;13.20;;;6.37;;
13560;SDS011;6852;51.686;5.314;2022-08-01T01:37:52;10.53;;;6.20;;
13560;SDS011;6852;51.686;5.314;2022-08-01T01:40:24;8.70;;;5.80;;
13560;SDS011;6852;51.686;5.314;2022-08-01T01:42:53;9.33;;;6.23;;
13560;SDS011;6852;51.686;5.314;2022-08-01T01:45:25;9.17;;;5.70;;
13560;SDS011;6852;51.686;5.314;2022-08-01T01:47:54;8.20;;;5.90;;
13560;SDS011;6852;51.686;5.314;2022-08-01T01:50:23;8.27;;;5.43;;
13560;SDS011;6852;51.686;5.314;2022-08-01T01:52:51;7.57;;;5.57;;
13560;SDS011;6852;51.686;5.314;2022-08-01T01:55:20;8.63;;;5.70;;
13560;SDS011;6852;51.686;5.314;2022-08-01T01:57:48;12.93;;;6.47;;
13560;SDS011;6852;51.686;5.314;2022-08-01T02:00:18;7.57;;;5.23;;
13560;SDS011;6852;51.686;5.314;2022-08-01T02:02:45;9.47;;;5.50;;
13560;SDS011;6852;51.686;5.314;2022-08-01T02:05:13;9.37;;;6.00;;
13560;SDS011;6852;51.686;5.314;2022-08-01T02:07:43;8.97;;;6.77;;
13560;SDS011;6852;51.686;5.314;2022-08-01T02:10:14;13.37;;;6.47;;
13560;SDS011;6852;51.686;5.314;2022-08-01T02:12:44;7.13;;;5.30;;
13560;SDS011;6852;51.686;5.314;2022-08-01T02:15:14;9.30;;;6.57;;
13560;SDS011;6852;51.686;5.314;2022-08-01T02:17:44;8.23;;;5.10;;
13560;SDS011;6852;51.686;5.314;2022-08-01T02:20:15;10.80;;;5.87;;
13560;SDS011;6852;51.686;5.314;2022-08-01T02:22:44;8.60;;;6.07;;
13560;SDS011;6852;51.686;5.314;2022-08-01T02:25:25;8.87;;;5.43;;
13560;SDS011;6852;51.686;5.314;2022-08-01T02:28:01;10.63;;;6.30;;
13560;SDS011;6852;51.686;5.314;2022-08-01T02:30:54;10.10;;;6.00;;
13560;SDS011;6852;51.686;5.314;2022-08-01T02:33:38;10.50;;;5.93;;
13560;SDS011;6852;51.686;5.314;2022-08-01T02:36:11;12.70;;;5.87;;
13560;SDS011;6852;51.686;5.314;2022-08-01T02:38:59;9.23;;;5.60;;
13560;SDS011;6852;51.686;5.314;2022-08-01T02:41:29;8.13;;;5.40;;
13560;SDS011;6852;51.686;5.314;2022-08-01T02:44:01;8.77;;;5.40;;
13560;SDS011;6852;51.686;5.314;2022-08-01T02:46:34;9.37;;;6.17;;
13560;SDS011;6852;51.686;5.314;2022-08-01T02:49:06;10.37;;;5.70;;
13560;SDS011;6852;51.686;5.314;2022-08-01T02:51:35;9.40;;;5.63;;
13560;SDS011;6852;51.686;5.314;2022-08-01T02:54:04;11.10;;;6.37;;
13560;SDS011;6852;51.686;5.314;2022-08-01T02:56:33;9.93;;;5.97;;
13560;SDS011;6852;51.686;5.314;2022-08-01T02:59:06;7.17;;;5.23;;
13560;SDS011;6852;51.686;5.314;2022-08-01T03:01:35;9.90;;;6.40;;
13560;SDS011;6852;51.686;5.314;2022-08-01T03:04:03;7.93;;;5.53;;
13560;SDS011;6852;51.686;5.314;2022-08-01T03:06:32;9.37;;;5.80;;
13560;SDS011;6852;51.686;5.314;2022-08-01T03:09:00;11.83;;;5.47;;
13560;SDS011;6852;51.686;5.314;2022-08-01T03:11:30;8.03;;;5.50;;
13560;SDS011;6852;51.686;5.314;2022-08-01T03:14:02;7.47;;;5.30;;
13560;SDS011;6852;51.686;5.314;2022-08-01T03:16:33;9.10;;;5.77;;
13560;SDS011;6852;51.686;5.314;2022-08-01T03:19:03;12.70;;;6.53;;
13560;SDS011;6852;51.686;5.314;2022-08-01T03:21:31;8.53;;;5.50;;
13560;SDS011;6852;51.686;5.314;2022-08-01T03:23:59;7.80;;;5.20;;
13560;SDS011;6852;51.686;5.314;2022-08-01T03:26:28;9.57;;;5.93;;
13560;SDS011;6852;51.686;5.314;2022-08-01T03:28:58;11.73;;;6.10;;
13560;SDS011;6852;51.686;5.314;2022-08-01T03:31:35;7.27;;;5.17;;
13560;SDS011;6852;51.686;5.314;2022-08-01T03:34:05;7.17;;;5.40;;
13560;SDS011;6852;51.686;5.314;2022-08-01T03:36:33;9.50;;;5.70;;
13560;SDS011;6852;51.686;5.314;2022-08-01T03:39:08;9.83;;;6.07;;
13560;SDS011;6852;51.686;5.314;2022-08-01T03:41:39;8.40;;;4.97;;
13560;SDS011;6852;51.686;5.314;2022-08-01T03:44:10;8.80;;;5.70;;
13560;SDS011;6852;51.686;5.314;2022-08-01T03:46:47;8.07;;;5.47;;
13560;SDS011;6852;51.686;5.314;2022-08-01T03:49:17;10.63;;;6.20;;
13560;SDS011;6852;51.686;5.314;2022-08-01T03:51:48;9.80;;;5.13;;
13560;SDS011;6852;51.686;5.314;2022-08-01T03:54:17;10.20;;;6.37;;
13560;SDS011;6852;51.686;5.314;2022-08-01T03:56:51;12.10;;;6.07;;
13560;SDS011;6852;51.686;5.314;2022-08-01T03:59:19;10.37;;;6.17;;
13560;SDS011;6852;51.686;5.314;2022-08-01T04:01:49;8.67;;;5.47;;
13560;SDS011;6852;51.686;5.314;2022-08-01T04:04:17;9.27;;;6.03;;
13560;SDS011;6852;51.686;5.314;2022-08-01T04:06:44;9.77;;;5.90;;
13560;SDS011;6852;51.686;5.314;2022-08-01T04:09:11;10.80;;;6.07;;
13560;SDS011;6852;51.686;5.314;2022-08-01T04:11:39;12.00;;;5.90;;
13560;SDS011;6852;51.686;5.314;2022-08-01T04:14:07;8.43;;;5.93;;
13560;SDS011;6852;51.686;5.314;2022-08-01T04:16:37;10.07;;;6.00;;
13560;SDS011;6852;51.686;5.314;2022-08-01T04:19:04;11.00;;;6.67;;
13560;SDS011;6852;51.686;5.314;2022-08-01T04:21:34;10.07;;;5.93;;
13560;SDS011;6852;51.686;5.314;2022-08-01T04:24:11;7.40;;;4.90;;
13560;SDS011;6852;51.686;5.314;2022-08-01T04:26:41;11.13;;;5.57;;
13560;SDS011;6852;51.686;5.314;2022-08-01T04:29:11;9.97;;;4.77;;
13560;SDS011;6852;51.686;5.314;2022-08-01T04:31:42;5.70;;;4.77;;
13560;SDS011;6852;51.686;5.314;2022-08-01T04:34:12;9.27;;;5.17;;
13560;SDS011;6852;51.686;5.314;2022-08-01T04:36:43;6.03;;;4.57;;
13560;SDS011;6852;51.686;5.314;2022-08-01T04:39:12;8.87;;;5.30;;
13560;SDS011;6852;51.686;5.314;2022-08-01T04:41:41;7.47;;;4.87;;
13560;SDS011;6852;51.686;5.314;2022-08-01T04:44:09;8.43;;;4.67;;
13560;SDS011;6852;51.686;5.314;2022-08-01T04:46:37;9.80;;;4.50;;
13560;SDS011;6852;51.686;5.314;2022-08-01T04:49:06;10.10;;;4.43;;
13560;SDS011;6852;51.686;5.314;2022-08-01T04:51:35;8.47;;;4.67;;
13560;SDS011;6852;51.686;5.314;2022-08-01T04:54:02;7.07;;;4.43;;
13560;SDS011;6852;51.686;5.314;2022-08-01T04:56:30;4.63;;;3.67;;
13560;SDS011;6852;51.686;5.314;2022-08-01T04:58:57;5.83;;;3.90;;
13560;SDS011;6852;51.686;5.314;2022-08-01T05:01:48;5.83;;;4.00;;
13560;SDS011;6852;51.686;5.314;2022-08-01T05:04:15;5.73;;;3.47;;
13560;SDS011;6852;51.686;5.314;2022-08-01T05:06:42;6.17;;;3.97;;
13560;SDS011;6852;51.686;5.314;2022-08-01T05:09:09;6.07;;;4.10;;
13560;SDS011;6852;51.686;5.314;2022-08-01T05:11:36;6.27;;;3.83;;
13560;SDS011;6852;51.686;5.314;2022-08-01T05:14:03;5.87;;;4.13;;
13560;SDS011;6852;51.686;5.314;2022-08-01T05:16:30;5.70;;;3.70;;
13560;SDS011;6852;51.686;5.314;2022-08-01T05:18:57;7.43;;;3.57;;
13560;SDS011;6852;51.686;5.314;2022-08-01T05:21:24;4.63;;;3.70;;
13560;SDS011;6852;51.686;5.314;2022-08-01T05:23:52;5.97;;;3.77;;
13560;SDS011;6852;51.686;5.314;2022-08-01T05:26:19;5.73;;;3.90;;
13560;SDS011;6852;51.686;5.314;2022-08-01T05:28:46;4.93;;;3.73;;
13560;SDS011;6852;51.686;5.314;2022-08-01T05:31:13;6.40;;;3.30;;
13560;SDS011;6852;51.686;5.314;2022-08-01T05:33:40;5.90;;;3.93;;
13560;SDS011;6852;51.686;5.314;2022-08-01T05:36:07;5.10;;;3.40;;
13560;SDS011;6852;51.686;5.314;2022-08-01T05:38:34;5.33;;;2.80;;
13560;SDS011;6852;51.686;5.314;2022-08-01T05:41:01;6.10;;;3.20;;
13560;SDS011;6852;51.686;5.314;2022-08-01T05:43:28;3.70;;;2.63;;
13560;SDS011;6852;51.686;5.314;2022-08-01T05:45:55;4.03;;;2.80;;
13560;SDS011;6852;51.686;5.314;2022-08-01T05:48:23;3.67;;;2.50;;
13560;SDS011;6852;51.686;5.314;2022-08-01T05:50:50;3.13;;;2.40;;
13560;SDS011;6852;51.686;5.314;2022-08-01T05:53:23;3.83;;;2.40;;
13560;SDS011;6852;51.686;5.314;2022-08-01T05:55:51;7.03;;;3.80;;
13560;SDS011;6852;51.686;5.314;2022-08-01T05:58:17;5.80;;;2.70;;
13560;SDS011;6852;51.686;5.314;2022-08-01T06:00:45;5.87;;;2.70;;
13560;SDS011;6852;51.686;5.314;2022-08-01T06:03:12;3.47;;;2.47;;
13560;SDS011;6852;51.686;5.314;2022-08-01T06:05:40;5.17;;;2.77;;
13560;SDS011;6852;51.686;5.314;2022-08-01T06:08:07;3.40;;;2.70;;
13560;SDS011;6852;51.686;5.314;2022-08-01T06:10:37;4.90;;;2.67;;
13560;SDS011;6852;51.686;5.314;2022-08-01T06:13:04;4.07;;;2.90;;
13560;SDS011;6852;51.686;5.314;2022-08-01T06:15:32;5.60;;;2.83;;
13560;SDS011;6852;51.686;5.314;2022-08-01T06:17:59;3.40;;;3.00;;
13560;SDS011;6852;51.686;5.314;2022-08-01T06:20:26;6.63;;;3.50;;
13560;SDS011;6852;51.686;5.314;2022-08-01T06:22:53;3.60;;;2.73;;
13560;SDS011;6852;51.686;5.314;2022-08-01T06:25:21;3.57;;;2.67;;
13560;SDS011;6852;51.686;5.314;2022-08-01T06:27:48;3.87;;;3.57;;
13560;SDS011;6852;51.686;5.314;2022-08-01T06:30:16;4.10;;;2.83;;
13560;SDS011;6852;51.686;5.314;2022-08-01T06:32:43;3.87;;;2.37;;
13560;SDS011;6852;51.686;5.314;2022-08-01T06:35:10;2.40;;;2.20;;
13560;SDS011;6852;51.686;5.314;2022-08-01T06:37:37;4.63;;;2.60;;
13560;SDS011;6852;51.686;5.314;2022-08-01T06:40:04;3.63;;;2.30;;
13560;SDS011;6852;51.686;5.314;2022-08-01T06:42:36;3.63;;;2.50;;
13560;SDS011;6852;51.686;5.314;2022-08-01T06:47:37;4.67;;;3.23;;
13560;SDS011;6852;51.686;5.314;2022-08-01T06:50:06;3.70;;;2.50;;
13560;SDS011;6852;51.686;5.314;2022-08-01T06:52:36;4.33;;;3.13;;
13560;SDS011;6852;51.686;5.314;2022-08-01T06:55:05;4.57;;;3.20;;
13560;SDS011;6852;51.686;5.314;2022-08-01T06:57:32;4.50;;;2.97;;
13560;SDS011;6852;51.686;5.314;2022-08-01T07:00:06;4.90;;;3.20;;
13560;SDS011;6852;51.686;5.314;2022-08-01T07:02:38;3.60;;;3.23;;
13560;SDS011;6852;51.686;5.314;2022-08-01T07:05:06;6.73;;;3.53;;
13560;SDS011;6852;51.686;5.314;2022-08-01T07:07:34;4.13;;;3.73;;
13560;SDS011;6852;51.686;5.314;2022-08-01T07:10:01;4.90;;;4.20;;
13560;SDS011;6852;51.686;5.314;2022-08-01T07:12:29;5.63;;;4.13;;
13560;SDS011;6852;51.686;5.314;2022-08-01T07:14:56;4.60;;;4.20;;
13560;SDS011;6852;51.686;5.314;2022-08-01T07:17:23;5.20;;;4.63;;
13560;SDS011;6852;51.686;5.314;2022-08-01T07:19:50;5.57;;;4.40;;
13560;SDS011;6852;51.686;5.314;2022-08-01T07:22:17;5.70;;;4.20;;
13560;SDS011;6852;51.686;5.314;2022-08-01T07:24:48;4.47;;;4.07;;
13560;SDS011;6852;51.686;5.314;2022-08-01T07:27:19;8.00;;;5.20;;
13560;SDS011;6852;51.686;5.314;2022-08-01T07:29:51;5.53;;;5.03;;
13560;SDS011;6852;51.686;5.314;2022-08-01T07:32:19;5.63;;;5.13;;
13560;SDS011;6852;51.686;5.314;2022-08-01T07:34:46;6.87;;;4.83;;
13560;SDS011;6852;51.686;5.314;2022-08-01T07:37:13;5.43;;;4.93;;
13560;SDS011;6852;51.686;5.314;2022-08-01T07:39:40;4.83;;;4.00;;
13560;SDS011;6852;51.686;5.314;2022-08-01T07:42:07;3.90;;;3.60;;
13560;SDS011;6852;51.686;5.314;2022-08-01T07:44:35;5.50;;;3.90;;
13560;SDS011;6852;51.686;5.314;2022-08-01T07:47:03;3.90;;;3.47;;
13560;SDS011;6852;51.686;5.314;2022-08-01T07:49:34;3.77;;;3.30;;
13560;SDS011;6852;51.686;5.314;2022-08-01T07:52:06;3.57;;;3.27;;
13560;SDS011;6852;51.686;5.314;2022-08-01T07:54:33;4.10;;;3.70;;
13560;SDS011;6852;51.686;5.314;2022-08-01T07:57:01;4.43;;;3.83;;
13560;SDS011;6852;51.686;5.314;2022-08-01T07:59:29;3.67;;;3.37;;
13560;SDS011;6852;51.686;5.314;2022-08-01T08:01:56;4.40;;;3.40;;
13560;SDS011;6852;51.686;5.314;2022-08-01T08:04:25;3.00;;;2.67;;
13560;SDS011;6852;51.686;5.314;2022-08-01T08:06:53;2.60;;;2.40;;
13560;SDS011;6852;51.686;5.314;2022-08-01T08:09:20;3.43;;;2.30;;
13560;SDS011;6852;51.686;5.314;2022-08-01T08:11:48;3.73;;;2.23;;
13560;SDS011;6852;51.686;5.314;2022-08-01T08:14:16;3.87;;;1.90;;
13560;SDS011;6852;51.686;5.314;2022-08-01T08:16:44;2.07;;;1.60;;
13560;SDS011;6852;51.686;5.314;2022-08-01T08:19:14;3.93;;;1.97;;
13560;SDS011;6852;51.686;5.314;2022-08-01T08:21:41;4.17;;;1.67;;
13560;SDS011;6852;51.686;5.314;2022-08-01T08:24:14;1.10;;;1.00;;
13560;SDS011;6852;51.686;5.314;2022-08-01T08:26:53;1.07;;;0.97;;
13560;SDS011;6852;51.686;5.314;2022-08-01T08:29:33;0.93;;;0.83;;
13560;SDS011;6852;51.686;5.314;2022-08-01T08:32:00;3.17;;;0.90;;
13560;SDS011;6852;51.686;5.314;2022-08-01T08:34:28;1.63;;;1.07;;
13560;SDS011;6852;51.686;5.314;2022-08-01T08:36:55;1.00;;;0.90;;
13560;SDS011;6852;51.686;5.314;2022-08-01T08:39:24;1.10;;;0.93;;
13560;SDS011;6852;51.686;5.314;2022-08-01T08:41:52;1.47;;;1.00;;
13560;SDS011;6852;51.686;5.314;2022-08-01T08:44:19;1.53;;;1.20;;
13560;SDS011;6852;51.686;5.314;2022-08-01T08:46:49;0.83;;;0.73;;
13560;SDS011;6852;51.686;5.314;2022-08-01T08:49:22;1.00;;;0.90;;
13560;SDS011;6852;51.686;5.314;2022-08-01T08:52:03;0.97;;;0.90;;
13560;SDS011;6852;51.686;5.314;2022-08-01T08:54:34;1.53;;;1.20;;
13560;SDS011;6852;51.686;5.314;2022-08-01T08:57:04;3.07;;;0.90;;
13560;SDS011;6852;51.686;5.314;2022-08-01T08:59:31;1.53;;;1.10;;
13560;SDS011;6852;51.686;5.314;2022-08-01T09:01:59;1.53;;;0.90;;
13560;SDS011;6852;51.686;5.314;2022-08-01T09:04:26;1.27;;;1.10;;
13560;SDS011;6852;51.686;5.314;2022-08-01T09:06:53;1.50;;;0.90;;
13560;SDS011;6852;51.686;5.314;2022-08-01T09:09:21;2.13;;;1.10;;
13560;SDS011;6852;51.686;5.314;2022-08-01T09:11:49;2.90;;;1.00;;
13560;SDS011;6852;51.686;5.314;2022-08-01T09:14:23;1.40;;;1.00;;
13560;SDS011;6852;51.686;5.314;2022-08-01T09:19:34;1.13;;;0.90;;
13560;SDS011;6852;51.686;5.314;2022-08-01T09:22:08;1.50;;;0.90;;
13560;SDS011;6852;51.686;5.314;2022-08-01T09:24:37;1.37;;;0.90;;
13560;SDS011;6852;51.686;5.314;2022-08-01T09:27:15;0.83;;;0.70;;
13560;SDS011;6852;51.686;5.314;2022-08-01T09:29:47;1.20;;;1.07;;
13560;SDS011;6852;51.686;5.314;2022-08-01T09:32:26;2.20;;;0.87;;
13560;SDS011;6852;51.686;5.314;2022-08-01T09:38:15;1.50;;;0.83;;
13560;SDS011;6852;51.686;5.314;2022-08-01T09:43:24;1.80;;;0.73;;
13560;SDS011;6852;51.686;5.314;2022-08-01T09:45:53;1.53;;;0.97;;
13560;SDS011;6852;51.686;5.314;2022-08-01T09:48:27;1.30;;;1.07;;
13560;SDS011;6852;51.686;5.314;2022-08-01T09:50:56;0.73;;;0.73;;
13560;SDS011;6852;51.686;5.314;2022-08-01T09:53:42;0.83;;;0.70;;
13560;SDS011;6852;51.686;5.314;2022-08-01T09:56:16;1.33;;;0.80;;
13560;SDS011;6852;51.686;5.314;2022-08-01T09:58:48;1.57;;;0.67;;
13560;SDS011;6852;51.686;5.314;2022-08-01T10:01:49;2.07;;;0.97;;
13560;SDS011;6852;51.686;5.314;2022-08-01T10:04:19;1.80;;;0.80;;
13560;SDS011;6852;51.686;5.314;2022-08-01T10:06:48;3.10;;;1.10;;
13560;SDS011;6852;51.686;5.314;2022-08-01T10:09:28;1.40;;;1.13;;
13560;SDS011;6852;51.686;5.314;2022-08-01T10:12:06;0.90;;;0.80;;
13560;SDS011;6852;51.686;5.314;2022-08-01T10:14:41;0.73;;;0.50;;
13560;SDS011;6852;51.686;5.314;2022-08-01T10:17:16;1.67;;;0.50;;
13560;SDS011;6852;51.686;5.314;2022-08-01T10:19:45;0.63;;;0.50;;
13560;SDS011;6852;51.686;5.314;2022-08-01T10:22:19;0.80;;;0.50;;
13560;SDS011;6852;51.686;5.314;2022-08-01T10:24:52;0.80;;;0.57;;
13560;SDS011;6852;51.686;5.314;2022-08-01T10:27:22;0.60;;;0.60;;
13560;SDS011;6852;51.686;5.314;2022-08-01T10:30:04;1.37;;;0.70;;
13560;SDS011;6852;51.686;5.314;2022-08-01T10:32:47;2.00;;;0.97;;
13560;SDS011;6852;51.686;5.314;2022-08-01T10:35:16;1.07;;;0.90;;
13560;SDS011;6852;51.686;5.314;2022-08-01T10:38:07;1.43;;;0.80;;
13560;SDS011;6852;51.686;5.314;2022-08-01T10:40:39;1.43;;;0.80;;
13560;SDS011;6852;51.686;5.314;2022-08-01T10:43:09;3.77;;;0.90;;
13560;SDS011;6852;51.686;5.314;2022-08-01T10:45:37;1.90;;;0.90;;
13560;SDS011;6852;51.686;5.314;2022-08-01T10:49:07;2.33;;;0.90;;
13560;SDS011;6852;51.686;5.314;2022-08-01T10:51:13;1.67;;;0.90;;
13560;SDS011;6852;51.686;5.314;2022-08-01T10:53:51;2.83;;;1.10;;
13560;SDS011;6852;51.686;5.314;2022-08-01T10:56:22;2.23;;;1.10;;
13560;SDS011;6852;51.686;5.314;2022-08-01T10:59:00;2.70;;;1.57;;
13560;SDS011;6852;51.686;5.314;2022-08-01T11:01:36;1.40;;;1.20;;
13560;SDS011;6852;51.686;5.314;2022-08-01T11:04:14;2.50;;;1.50;;
13560;SDS011;6852;51.686;5.314;2022-08-01T11:06:52;4.30;;;1.97;;
13560;SDS011;6852;51.686;5.314;2022-08-01T11:09:31;2.20;;;1.40;;
13560;SDS011;6852;51.686;5.314;2022-08-01T11:12:17;6.20;;;1.47;;
13560;SDS011;6852;51.686;5.314;2022-08-01T11:17:35;3.57;;;1.60;;
13560;SDS011;6852;51.686;5.314;2022-08-01T11:20:11;4.60;;;1.70;;
13560;SDS011;6852;51.686;5.314;2022-08-01T11:28:23;2.20;;;1.53;;
13560;SDS011;6852;51.686;5.314;2022-08-01T11:38:41;2.03;;;1.73;;
13560;SDS011;6852;51.686;5.314;2022-08-01T11:41:17;4.87;;;2.33;;
13560;SDS011;6852;51.686;5.314;2022-08-01T11:46:47;4.80;;;2.00;;
13560;SDS011;6852;51.686;5.314;2022-08-01T11:49:33;5.37;;;1.93;;
13560;SDS011;6852;51.686;5.314;2022-08-01T11:52:09;2.90;;;1.87;;
13560;SDS011;6852;51.686;5.314;2022-08-01T11:54:57;3.57;;;2.23;;
13560;SDS011;6852;51.686;5.314;2022-08-01T11:57:28;2.97;;;1.80;;
13560;SDS011;6852;51.686;5.314;2022-08-01T12:00:00;2.90;;;1.73;;
13560;SDS011;6852;51.686;5.314;2022-08-01T12:02:42;3.87;;;2.20;;
13560;SDS011;6852;51.686;5.314;2022-08-01T12:05:14;5.17;;;2.10;;
13560;SDS011;6852;51.686;5.314;2022-08-01T12:07:50;3.53;;;1.67;;
13560;SDS011;6852;51.686;5.314;2022-08-01T12:10:20;4.33;;;2.07;;
13560;SDS011;6852;51.686;5.314;2022-08-01T12:15:21;3.53;;;2.00;;
13560;SDS011;6852;51.686;5.314;2022-08-01T12:17:55;5.87;;;1.63;;
13560;SDS011;6852;51.686;5.314;2022-08-01T12:20:29;4.00;;;1.70;;
13560;SDS011;6852;51.686;5.314;2022-08-01T12:23:04;3.77;;;1.80;;
13560;SDS011;6852;51.686;5.314;2022-08-01T12:25:34;3.40;;;1.40;;
13560;SDS011;6852;51.686;5.314;2022-08-01T12:28:02;3.17;;;1.90;;
13560;SDS011;6852;51.686;5.314;2022-08-01T12:30:37;4.17;;;2.03;;
13560;SDS011;6852;51.686;5.314;2022-08-01T12:33:16;3.30;;;1.93;;
13560;SDS011;6852;51.686;5.314;2022-08-01T12:35:44;5.57;;;2.07;;
13560;SDS011;6852;51.686;5.314;2022-08-01T12:38:19;6.60;;;2.20;;
13560;SDS011;6852;51.686;5.314;2022-08-01T12:40:49;5.17;;;2.07;;
13560;SDS011;6852;51.686;5.314;2022-08-01T12:43:23;4.10;;;1.90;;
13560;SDS011;6852;51.686;5.314;2022-08-01T12:45:58;5.40;;;1.67;;
13560;SDS011;6852;51.686;5.314;2022-08-01T12:48:30;5.43;;;1.70;;
13560;SDS011;6852;51.686;5.314;2022-08-01T12:50:58;3.87;;;1.60;;
13560;SDS011;6852;51.686;5.314;2022-08-01T12:53:32;6.13;;;1.43;;
13560;SDS011;6852;51.686;5.314;2022-08-01T12:56:07;9.23;;;1.80;;
13560;SDS011;6852;51.686;5.314;2022-08-01T12:58:36;4.40;;;1.80;;
13560;SDS011;6852;51.686;5.314;2022-08-01T13:01:09;7.23;;;2.67;;
13560;SDS011;6852;51.686;5.314;2022-08-01T13:03:39;4.97;;;1.70;;
13560;SDS011;6852;51.686;5.314;2022-08-01T13:06:11;4.10;;;1.93;;
13560;SDS011;6852;51.686;5.314;2022-08-01T13:08:42;3.40;;;1.90;;
13560;SDS011;6852;51.686;5.314;2022-08-01T13:11:13;3.63;;;1.87;;
13560;SDS011;6852;51.686;5.314;2022-08-01T13:13:50;3.57;;;1.70;;
13560;SDS011;6852;51.686;5.314;2022-08-01T13:16:30;3.63;;;1.60;;
13560;SDS011;6852;51.686;5.314;2022-08-01T13:19:41;5.57;;;2.07;;
13560;SDS011;6852;51.686;5.314;2022-08-01T13:22:11;7.13;;;1.83;;
13560;SDS011;6852;51.686;5.314;2022-08-01T13:24:41;5.17;;;2.13;;
13560;SDS011;6852;51.686;5.314;2022-08-01T13:27:19;2.53;;;1.30;;
13560;SDS011;6852;51.686;5.314;2022-08-01T13:29:49;5.63;;;1.93;;
13560;SDS011;6852;51.686;5.314;2022-08-01T13:32:25;5.17;;;1.63;;
13560;SDS011;6852;51.686;5.314;2022-08-01T13:35:04;4.47;;;1.63;;
13560;SDS011;6852;51.686;5.314;2022-08-01T13:37:36;4.40;;;1.63;;
13560;SDS011;6852;51.686;5.314;2022-08-01T13:40:08;11.10;;;2.43;;
13560;SDS011;6852;51.686;5.314;2022-08-01T13:42:36;4.27;;;1.90;;
13560;SDS011;6852;51.686;5.314;2022-08-01T13:45:04;4.70;;;1.60;;
13560;SDS011;6852;51.686;5.314;2022-08-01T13:47:40;8.73;;;1.83;;
13560;SDS011;6852;51.686;5.314;2022-08-01T13:50:33;3.30;;;1.40;;
13560;SDS011;6852;51.686;5.314;2022-08-01T13:53:00;3.80;;;1.43;;
13560;SDS011;6852;51.686;5.314;2022-08-01T13:55:29;5.13;;;1.70;;
13560;SDS011;6852;51.686;5.314;2022-08-01T13:58:00;7.20;;;1.77;;
13560;SDS011;6852;51.686;5.314;2022-08-01T14:00:34;4.10;;;1.67;;
13560;SDS011;6852;51.686;5.314;2022-08-01T14:03:03;4.80;;;1.50;;
13560;SDS011;6852;51.686;5.314;2022-08-01T14:05:35;5.33;;;1.30;;
13560;SDS011;6852;51.686;5.314;2022-08-01T14:08:09;5.57;;;1.60;;
13560;SDS011;6852;51.686;5.314;2022-08-01T14:10:36;6.03;;;1.60;;
13560;SDS011;6852;51.686;5.314;2022-08-01T14:13:04;4.67;;;1.40;;
13560;SDS011;6852;51.686;5.314;2022-08-01T14:15:37;8.07;;;1.87;;
13560;SDS011;6852;51.686;5.314;2022-08-01T14:18:06;5.30;;;1.50;;
13560;SDS011;6852;51.686;5.314;2022-08-01T14:20:35;3.17;;;1.77;;
13560;SDS011;6852;51.686;5.314;2022-08-01T14:23:05;3.50;;;1.17;;
13560;SDS011;6852;51.686;5.314;2022-08-01T14:25:37;5.53;;;1.40;;
13560;SDS011;6852;51.686;5.314;2022-08-01T14:28:29;4.33;;;1.83;;
13560;SDS011;6852;51.686;5.314;2022-08-01T14:30:57;3.43;;;1.33;;
13560;SDS011;6852;51.686;5.314;2022-08-01T14:33:30;2.50;;;1.27;;
13560;SDS011;6852;51.686;5.314;2022-08-01T14:35:59;4.93;;;1.37;;
13560;SDS011;6852;51.686;5.314;2022-08-01T14:38:46;6.13;;;1.60;;
13560;SDS011;6852;51.686;5.314;2022-08-01T14:41:14;2.83;;;1.40;;
13560;SDS011;6852;51.686;5.314;2022-08-01T14:43:44;4.90;;;1.67;;
13560;SDS011;6852;51.686;5.314;2022-08-01T14:46:11;5.03;;;1.70;;
13560;SDS011;6852;51.686;5.314;2022-08-01T14:48:39;2.43;;;1.57;;
13560;SDS011;6852;51.686;5.314;2022-08-01T14:51:06;3.13;;;1.50;;
13560;SDS011;6852;51.686;5.314;2022-08-01T14:53:34;4.97;;;1.27;;
13560;SDS011;6852;51.686;5.314;2022-08-01T14:56:06;3.27;;;1.50;;
13560;SDS011;6852;51.686;5.314;2022-08-01T14:58:36;1.97;;;1.10;;
13560;SDS011;6852;51.686;5.314;2022-08-01T15:01:06;7.23;;;1.70;;
13560;SDS011;6852;51.686;5.314;2022-08-01T15:03:33;4.20;;;1.23;;
13560;SDS011;6852;51.686;5.314;2022-08-01T15:06:00;3.70;;;1.10;;
13560;SDS011;6852;51.686;5.314;2022-08-01T15:08:28;2.03;;;1.20;;
13560;SDS011;6852;51.686;5.314;2022-08-01T15:11:05;3.67;;;1.03;;
13560;SDS011;6852;51.686;5.314;2022-08-01T15:13:34;4.33;;;0.93;;
13560;SDS011;6852;51.686;5.314;2022-08-01T15:16:07;5.00;;;0.90;;
13560;SDS011;6852;51.686;5.314;2022-08-01T15:18:37;3.20;;;1.20;;
13560;SDS011;6852;51.686;5.314;2022-08-01T15:21:04;2.17;;;1.30;;
13560;SDS011;6852;51.686;5.314;2022-08-01T15:23:31;2.10;;;1.00;;
13560;SDS011;6852;51.686;5.314;2022-08-01T15:25:58;2.83;;;1.27;;
13560;SDS011;6852;51.686;5.314;2022-08-01T15:28:28;1.97;;;0.67;;
13560;SDS011;6852;51.686;5.314;2022-08-01T15:30:55;1.93;;;0.90;;
13560;SDS011;6852;51.686;5.314;2022-08-01T15:33:21;1.60;;;0.90;;
13560;SDS011;6852;51.686;5.314;2022-08-01T15:35:49;3.33;;;0.70;;
13560;SDS011;6852;51.686;5.314;2022-08-01T15:38:18;1.87;;;0.70;;
13560;SDS011;6852;51.686;5.314;2022-08-01T15:40:45;2.03;;;1.00;;
13560;SDS011;6852;51.686;5.314;2022-08-01T15:43:15;1.47;;;0.90;;
13560;SDS011;6852;51.686;5.314;2022-08-01T15:45:43;3.53;;;0.93;;
13560;SDS011;6852;51.686;5.314;2022-08-01T15:48:14;2.33;;;1.10;;
13560;SDS011;6852;51.686;5.314;2022-08-01T15:50:42;3.87;;;1.00;;
13560;SDS011;6852;51.686;5.314;2022-08-01T15:53:09;2.00;;;1.10;;
13560;SDS011;6852;51.686;5.314;2022-08-01T15:55:36;4.23;;;1.00;;
13560;SDS011;6852;51.686;5.314;2022-08-01T15:58:05;1.60;;;0.80;;
13560;SDS011;6852;51.686;5.314;2022-08-01T16:00:32;1.50;;;0.70;;
13560;SDS011;6852;51.686;5.314;2022-08-01T16:03:04;1.80;;;0.70;;